Vaughn, Washington
Current Conditions -  °F | °C
As of 5:53 PM on Saturday 20 Dec 2014 (Local Time) from KTIW Reporting Station
Light Rain Light Rain  
Wind Chill: 52°   Ceiling: 3200
Heat Index: 52°   Visibility: 5mi
Dew Point: 50°   Wind: 24mph
Humidity: 93%   Direction: 190°S
Pressure: 29.48"   Gusts: 33mph
Location:  47.34°N, 122.77°W
Report Text: KTIW 210153Z 19021G29KT 5SM -RA BR SCT006 OVC032 11/10 A2948 RMK AO2 PK WND 19029/0144 SLP983 P0014 T01110100
Loading
Personal Weather Stations






























Interactive Weather Map New forecast layout! Learn more

10-Day Weather Forecast

Advertisements
Track Severe Weather on mobile